Latest Weather Observations for Little Bay

IDN60801

Issued at 1:32 pm EST Saturday 5 September 2015 (issued every 30 minutes, with the page automatically refreshed every 10 minutes)

About weather observations | Map of weather stations | Latest weather observations for NSW | Other Formats
Station Details ID: 066051 Name: LITTLE BAY (THE COAST GOLF CLUB) Lat: -33.98 Lon: 151.25 Height: 22.0 m
Data from the previous 72 hours. | See also: Recent months for locations in New South Wales
Date/Time
EST
Temp
°C
App
Temp
°C
Dew
Point
Rel
Hum
%
Delta-T
°C
Wind Press
QNH
hPa
Press
MSL
hPa
Rain
since 9 am
mm
Dir
 
Spd
km/h
Gust
km/h
Spd
kts
Gust
kts
05/01:30pm - - - - - SSE 17 24 9 13 - - -
05/01:00pm - - - - - S 17 22 9 12 - - -
05/12:30pm - - - - - SSE 19 24 10 13 - - -
05/12:00pm - - - - - SSE 17 20 9 11 - - -
05/11:30am - - - - - SSE 13 19 7 10 - - -
05/11:00am - - - - - S 11 15 6 8 - - -
05/10:30am - - - - - WSW 7 13 4 7 - - -
05/10:00am - - - - - W 9 13 5 7 - - -
05/09:30am - - - - - W 13 19 7 10 - - -
05/09:00am - - - - - W 13 19 7 10 - - -
05/08:30am - - - - - WNW 13 19 7 10 - - -
05/08:00am - - - - - WNW 13 20 7 11 - - -
05/07:30am - - - - - WNW 11 15 6 8 - - -
05/07:00am - - - - - WNW 11 15 6 8 - - -
05/06:30am - - - - - WNW 13 17 7 9 - - -
05/06:00am - - - - - WNW 9 11 5 6 - - -
05/05:30am - - - - - WNW 7 9 4 5 - - -
05/05:00am - - - - - WNW 7 9 4 5 - - -
05/04:30am - - - - - WNW 6 7 3 4 - - -
05/04:00am - - - - - WNW 6 7 3 4 - - -
05/03:30am - - - - - WNW 7 9 4 5 - - -
05/03:00am - - - - - WNW 9 11 5 6 - - -
05/02:30am - - - - - W 9 13 5 7 - - -
05/02:00am - - - - - WNW 9 11 5 6 - - -
05/01:30am - - - - - WNW 7 9 4 5 - - -
05/01:00am - - - - - WNW 7 9 4 5 - - -
05/12:30am - - - - - WNW 7 11 4 6 - - -
05/12:00am - - - - - WNW 6 9 3 5 - - -
 
Date/Time
EST
Temp
°C
App
Temp
°C
Dew
Point
Rel
Hum
%
Delta-T
°C
Wind Press
QNH
hPa
Press
MSL
hPa
Rain
since 9 am
mm
Dir
 
Spd
km/h
Gust
km/h
Spd
kts
Gust
kts
04/11:30pm - - - - - W 6 6 3 3 - - -
04/11:00pm - - - - - WNW 6 6 3 3 - - -
04/10:30pm - - - - - WSW 2 6 1 3 - - -
04/10:00pm - - - - - E 4 6 2 3 - - -
04/09:30pm - - - - - ESE 6 7 3 4 - - -
04/09:00pm - - - - - E 2 4 1 2 - - -
04/08:30pm - - - - - E 4 6 2 3 - - -
04/08:00pm - - - - - ESE 6 7 3 4 - - -
04/07:30pm - - - - - SE 9 9 5 5 - - -
04/07:00pm - - - - - SE 11 15 6 8 - - -
04/06:30pm - - - - - SE 15 19 8 10 - - -
04/06:00pm - - - - - SSE 11 15 6 8 - - -
04/05:30pm - - - - - SE 13 17 7 9 - - -
04/05:00pm - - - - - SE 15 19 8 10 - - -
04/04:30pm - - - - - SSE 17 24 9 13 - - -
04/04:00pm - - - - - S 15 20 8 11 - - -
04/03:30pm - - - - - SSE 19 24 10 13 - - -
04/03:00pm - - - - - S 19 26 10 14 - - -
04/02:30pm - - - - - S 22 32 12 17 - - -
04/02:00pm - - - - - S 22 32 12 17 - - -
04/01:30pm - - - - - S 26 37 14 20 - - -
04/01:00pm - - - - - S 26 37 14 20 - - -
04/12:30pm - - - - - SSW 28 39 15 21 - - -
04/12:00pm - - - - - SSW 28 41 15 22 - - -
04/11:30am - - - - - SSW 30 39 16 21 - - -
04/11:00am - - - - - SSW 28 37 15 20 - - -
04/10:30am - - - - - SSW 28 39 15 21 - - -
04/10:00am - - - - - SSW 26 39 14 21 - - -
04/09:30am - - - - - SSW 28 43 15 23 - - -
04/09:00am - - - - - SSW 28 44 15 24 - - -
04/08:30am - - - - - SSW 28 39 15 21 - - -
04/08:00am - - - - - SSW 30 43 16 23 - - -
04/07:30am - - - - - S 30 41 16 22 - - -
04/07:00am - - - - - S 30 41 16 22 - - -
04/06:30am - - - - - SSW 24 37 13 20 - - -
04/06:00am - - - - - SSW 22 37 12 20 - - -
04/05:30am - - - - - SW 22 33 12 18 - - -
04/05:00am - - - - - SSW 30 43 16 23 - - -
04/04:33am - - - - - SSW 33 52 18 28 - - -
04/04:30am - - - - - SSW 32 46 17 25 - - -
04/04:00am - - - - - SSW 28 39 15 21 - - -
04/03:30am - - - - - SSW 24 39 13 21 - - -
04/03:00am - - - - - SW 26 39 14 21 - - -
04/02:30am - - - - - SW 24 39 13 21 - - -
04/02:00am - - - - - SSW 26 37 14 20 - - -
04/01:30am - - - - - SW 26 41 14 22 - - -
04/01:00am - - - - - SSW 32 48 17 26 - - -
04/12:41am - - - - - SSW 28 50 15 27 - - -
04/12:30am - - - - - SSW 33 48 18 26 - - -
04/12:15am - - - - - S 33 54 18 29 - - -
04/12:00am - - - - - SSW 26 46 14 25 - - -
 
Date/Time
EST
Temp
°C
App
Temp
°C
Dew
Point
Rel
Hum
%
Delta-T
°C
Wind Press
QNH
hPa
Press
MSL
hPa
Rain
since 9 am
mm
Dir
 
Spd
km/h
Gust
km/h
Spd
kts
Gust
kts
03/11:57pm - - - - - SSW 28 46 15 25 - - -
03/11:30pm - - - - - SW 32 48 17 26 - - -
03/11:00pm - - - - - SW 30 43 16 23 - - -
03/10:30pm - - - - - WSW 17 26 9 14 - - -
03/10:00pm - - - - - SW 20 35 11 19 - - -
03/09:30pm - - - - - SW 22 35 12 19 - - -
03/09:00pm - - - - - SW 22 35 12 19 - - -
03/08:43pm - - - - - SSW 28 48 15 26 - - -
03/08:30pm - - - - - SW 26 41 14 22 - - -
03/08:00pm - - - - - SW 19 28 10 15 - - -
03/07:30pm - - - - - WSW 20 33 11 18 - - -
03/07:00pm - - - - - WSW 13 22 7 12 - - -
03/06:30pm - - - - - SW 19 26 10 14 - - -
03/06:00pm - - - - - SW 22 33 12 18 - - -
03/05:30pm - - - - - SW 19 33 10 18 - - -
03/05:00pm - - - - - SW 19 30 10 16 - - -
03/04:30pm - - - - - SW 26 44 14 24 - - -
03/04:00pm - - - - - SW 20 30 11 16 - - -
03/03:30pm - - - - - SW 20 30 11 16 - - -
03/03:00pm - - - - - WSW 19 28 10 15 - - -
03/02:30pm - - - - - WSW 15 26 8 14 - - -
03/02:00pm - - - - - WSW 19 28 10 15 - - -
03/01:30pm - - - - - WSW 15 24 8 13 - - -
03/01:00pm - - - - - WSW 20 32 11 17 - - -
03/12:30pm - - - - - WSW 19 30 10 16 - - -
03/12:00pm - - - - - W 17 28 9 15 - - -
03/11:30am - - - - - W 15 24 8 13 - - -
03/11:00am - - - - - W 19 28 10 15 - - -
03/10:30am - - - - - W 17 24 9 13 - - -
03/10:00am - - - - - W 11 19 6 10 - - -
03/09:30am - - - - - W 15 20 8 11 - - -
03/09:00am - - - - - W 17 24 9 13 - - -
03/08:30am - - - - - W 15 22 8 12 - - -
03/08:00am - - - - - W 19 26 10 14 - - -
03/07:30am - - - - - WNW 13 20 7 11 - - -
03/07:00am - - - - - WNW 13 19 7 10 - - -
03/06:30am - - - - - WNW 9 15 5 8 - - -
03/06:00am - - - - - WNW 9 13 5 7 - - -
03/05:30am - - - - - NNW 9 13 5 7 - - -
03/05:00am - - - - - N 11 17 6 9 - - -
03/04:30am - - - - - N 9 15 5 8 - - -
03/04:00am - - - - - N 9 13 5 7 - - -
03/03:30am - - - - - N 11 15 6 8 - - -
03/03:00am - - - - - NW 4 7 2 4 - - -
03/02:30am - - - - - CALM 0 0 0 0 - - -
03/02:00am - - - - - W 4 13 2 7 - - -
03/01:30am - - - - - WNW 2 4 1 2 - - -
03/01:00am - - - - - N 4 6 2 3 - - -
03/12:30am - - - - - NNW 11 19 6 10 - - -
03/12:00am - - - - - WNW 13 28 7 15 - - -
 
Date/Time
EST
Temp
°C
App
Temp
°C
Dew
Point
Rel
Hum
%
Delta-T
°C
Wind Press
QNH
hPa
Press
MSL
hPa
Rain
since 9 am
mm
Dir
 
Spd
km/h
Gust
km/h
Spd
kts
Gust
kts
02/11:30pm - - - - - N 19 32 10 17 - - -
02/11:00pm - - - - - NNE 24 33 13 18 - - -
02/10:30pm - - - - - N 20 32 11 17 - - -
02/10:00pm - - - - - NNE 26 39 14 21 - - -
02/09:30pm - - - - - N 26 37 14 20 - - -
02/09:00pm - - - - - NNE 24 39 13 21 - - -
02/08:30pm - - - - - NNE 26 39 14 21 - - -
02/08:00pm - - - - - NNE 26 37 14 20 - - -
02/07:30pm - - - - - N 20 30 11 16 - - -
02/07:00pm - - - - - N 20 32 11 17 - - -
02/06:30pm - - - - - NNE 22 30 12 16 - - -
02/06:00pm - - - - - NNE 22 35 12 19 - - -
02/05:30pm - - - - - NNE 24 32 13 17 - - -
02/05:00pm - - - - - N 22 32 12 17 - - -
02/04:30pm - - - - - N 20 28 11 15 - - -
02/04:00pm - - - - - NNE 19 26 10 14 - - -
02/03:30pm - - - - - NNE 20 26 11 14 - - -
02/03:00pm - - - - - NNE 22 30 12 16 - - -
02/02:30pm - - - - - NNE 20 28 11 15 - - -
02/02:00pm - - - - - NNE 20 28 11 15 - - -

Other Formats:

Comma delimited format used in spreadsheet applications
http://www.bom.gov.au/fwo/IDN60801/IDN60801.94780.axf

JavaScript Object Notation format (JSON) in row-major order
http://www.bom.gov.au/fwo/IDN60801/IDN60801.94780.json